createdAt,value
2022-09-05T00:00:32.296Z,101688.71
2022-09-05T00:04:25.776Z,101681.59
2022-09-05T00:08:21.086Z,101677.42
2022-09-05T00:12:10.465Z,101677.65
2022-09-05T00:16:07.146Z,101677.86
2022-09-05T00:24:21.740Z,101681.27
2022-09-05T00:24:45.618Z,101682.40
2022-09-05T00:28:33.896Z,101679.89
2022-09-05T00:32:49.288Z,101678.75
2022-09-05T00:36:41.821Z,101677.45
2022-09-05T00:40:34.350Z,101681.08
2022-09-05T00:44:33.053Z,101684.67
2022-09-05T00:48:35.016Z,101687.39
2022-09-05T00:52:50.475Z,101688.02
2022-09-05T00:57:28.382Z,101691.97
2022-09-05T01:01:30.584Z,101686.94
2022-09-05T01:05:32.795Z,101685.80
2022-09-05T01:09:46.711Z,101693.95
2022-09-05T01:13:42.107Z,101690.17
2022-09-05T01:17:39.569Z,101690.23
2022-09-05T01:22:10.181Z,101687.83
2022-09-05T01:26:10.212Z,101687.19
2022-09-05T01:30:05.996Z,101691.64
2022-09-05T01:33:58.370Z,101695.90
2022-09-05T01:37:54.498Z,101699.46
2022-09-05T01:42:00.484Z,101700.70
2022-09-05T01:45:53.839Z,101700.62
2022-09-05T01:49:55.641Z,101695.41
2022-09-05T01:54:10.169Z,101697.75
2022-09-05T01:58:21.455Z,101695.48
2022-09-05T02:02:22.650Z,101703.27
2022-09-05T02:06:35.752Z,101702.92
2022-09-05T02:10:41.565Z,101707.34
2022-09-05T02:14:42.310Z,101706.88
2022-09-05T02:18:39.197Z,101711.50
2022-09-05T02:22:29.725Z,101718.89
2022-09-05T02:26:31.088Z,101719.98
2022-09-05T02:30:27.819Z,101718.60
2022-09-05T02:34:16.873Z,101720.73
2022-09-05T02:42:17.166Z,101718.80
2022-09-05T02:45:10.683Z,101725.98
2022-09-05T02:46:51.000Z,101727.04
2022-09-05T02:53:46.956Z,101725.65
2022-09-05T02:57:42.652Z,101722.55
2022-09-05T02:59:13.218Z,101722.77
2022-09-05T03:03:18.597Z,101723.86
2022-09-05T03:07:15.979Z,101719.53
2022-09-05T03:11:27.472Z,101721.91
2022-09-05T03:15:45.066Z,101726.84
2022-09-05T03:20:08.042Z,101727.27
2022-09-05T03:24:12.646Z,101728.02
2022-09-05T03:28:36.334Z,101728.13
2022-09-05T03:32:53.203Z,101727.48
2022-09-05T03:37:38.444Z,101729.15
2022-09-05T03:41:40.460Z,101731.85
2022-09-05T03:45:54.753Z,101730.17
2022-09-05T03:57:07.576Z,101727.80
2022-09-05T03:57:13.298Z,101733.92
2022-09-05T03:59:07.216Z,101736.92
2022-09-05T04:08:09.386Z,101735.77
2022-09-05T04:08:30.602Z,101734.02
2022-09-05T04:11:37.732Z,101737.69
2022-09-05T04:15:34.312Z,101743.80
2022-09-05T04:19:26.966Z,101749.91
2022-09-05T04:23:31.102Z,101751.48
2022-09-05T04:27:36.648Z,101752.92
2022-09-05T04:31:31.795Z,101757.86
2022-09-05T04:35:35.275Z,101754.16
2022-09-05T04:39:30.515Z,101755.52
2022-09-05T04:43:27.542Z,101757.10
2022-09-05T04:47:17.032Z,101759.08
2022-09-05T04:51:11.466Z,101762.21
2022-09-05T04:55:03.220Z,101770.30
2022-09-05T05:01:56.028Z,101770.83
2022-09-05T05:06:10.850Z,101770.75
2022-09-05T05:07:18.195Z,101775.85
2022-09-05T05:14:45.867Z,101770.45
2022-09-05T05:18:15.467Z,101771.38
2022-09-05T05:19:29.419Z,101779.20
2022-09-05T05:23:18.052Z,101783.48
2022-09-05T05:27:11.068Z,101783.79
2022-09-05T05:31:01.259Z,101788.83
2022-09-05T05:34:49.993Z,101786.67
2022-09-05T05:38:45.113Z,101785.27
2022-09-05T05:42:29.598Z,101789.40
2022-09-05T05:46:24.512Z,101784.43
2022-09-05T05:50:19.710Z,101783.65
2022-09-05T05:54:15.385Z,101785.65
2022-09-05T05:58:15.307Z,101786.70
2022-09-05T06:02:34.674Z,101791.71
2022-09-05T06:06:33.776Z,101790.30
2022-09-05T06:15:03.764Z,101796.50
2022-09-05T06:15:28.094Z,101794.21
2022-09-05T06:19:43.640Z,101788.86
2022-09-05T06:24:40.111Z,101784.17
2022-09-05T06:28:37.891Z,101784.23
2022-09-05T06:32:36.728Z,101784.42
2022-09-05T06:36:44.002Z,101784.09
2022-09-05T06:40:34.488Z,101779.85
2022-09-05T06:44:40.294Z,101784.13
2022-09-05T06:48:44.333Z,101787.86
2022-09-05T06:53:08.288Z,101790.85
2022-09-05T06:57:21.407Z,101788.55
2022-09-05T07:01:08.773Z,101787.67
2022-09-05T07:05:36.891Z,101785.55
2022-09-05T07:09:23.638Z,101790.17
2022-09-05T07:13:19.695Z,101789.28
2022-09-05T07:17:11.051Z,101798.64
2022-09-05T07:21:16.471Z,101801.29
2022-09-05T07:25:08.624Z,101799.55
2022-09-05T07:28:59.710Z,101809.48
2022-09-05T07:32:45.888Z,101813.73
2022-09-05T07:36:39.770Z,101811.95
2022-09-05T07:40:26.939Z,101817.98
2022-09-05T07:44:17.302Z,101827.73
2022-09-05T07:48:09.941Z,101833.93
2022-09-05T07:56:48.159Z,101829.30
2022-09-05T07:57:02.241Z,101830.14
2022-09-05T08:00:27.143Z,101831.54
2022-09-05T08:04:23.678Z,101834.16
2022-09-05T08:08:14.323Z,101831.33
2022-09-05T08:12:09.625Z,101829.92
2022-09-05T08:16:13.158Z,101830.61
2022-09-05T08:20:10.569Z,101823.02
2022-09-05T08:24:00.046Z,101822.65
2022-09-05T08:27:58.847Z,101817.52
2022-09-05T08:31:49.292Z,101811.30
2022-09-05T08:35:39.684Z,101810.23
2022-09-05T08:39:26.714Z,101810.79
2022-09-05T08:44:39.419Z,101800.86
2022-09-05T08:47:45.602Z,101794.46
2022-09-05T08:51:41.839Z,101791.45
2022-09-05T08:55:46.681Z,101782.77
2022-09-05T09:00:19.299Z,101784.19
2022-09-05T09:04:11.411Z,101783.11
2022-09-05T09:08:04.144Z,101784.18
2022-09-05T09:11:56.184Z,101777.80
2022-09-05T09:15:47.683Z,101777.59
2022-09-05T09:19:46.709Z,101782.36
2022-09-05T09:23:46.262Z,101779.66
2022-09-05T09:28:33.596Z,101777.67
2022-09-05T09:32:00.028Z,101769.98
2022-09-05T09:35:51.247Z,101764.96
2022-09-05T09:39:53.264Z,101761.00
2022-09-05T09:43:58.349Z,101759.56
2022-09-05T09:48:06.285Z,101756.84
2022-09-05T09:52:02.427Z,101754.73
2022-09-05T09:56:27.561Z,101752.64
2022-09-05T10:00:21.468Z,101752.39
2022-09-05T10:04:21.829Z,101738.50
2022-09-05T10:10:47.955Z,101742.33
2022-09-05T10:13:21.386Z,101731.90
2022-09-05T10:17:36.350Z,101727.23
2022-09-05T10:21:36.652Z,101726.84
2022-09-05T10:25:33.783Z,101722.29
2022-09-05T10:29:39.242Z,101726.80
2022-09-05T10:35:17.163Z,101724.55
2022-09-05T10:37:45.778Z,101724.30
2022-09-05T10:41:41.133Z,101724.80
2022-09-05T10:45:38.252Z,101721.21
2022-09-05T10:49:30.261Z,101714.44
2022-09-05T10:53:39.794Z,101719.76
2022-09-05T10:57:38.173Z,101715.52
2022-09-05T11:02:30.157Z,101712.94
2022-09-05T11:05:40.236Z,101708.75
2022-09-05T11:09:40.259Z,101713.19
2022-09-05T11:13:44.421Z,101714.33
2022-09-05T11:17:35.877Z,101712.57
2022-09-05T11:21:27.310Z,101703.39
2022-09-05T11:25:36.213Z,101710.20
2022-09-05T11:29:33.339Z,101699.02
2022-09-05T11:39:45.558Z,101700.31
2022-09-05T11:40:08.917Z,101694.75
2022-09-05T11:42:50.833Z,101694.17
2022-09-05T11:46:42.259Z,101694.75
2022-09-05T11:51:02.088Z,101692.30
2022-09-05T11:55:25.735Z,101692.66
2022-09-05T11:59:33.138Z,101681.77
2022-09-05T12:03:59.845Z,101683.36
2022-09-05T12:08:01.972Z,101683.93
2022-09-05T12:12:06.265Z,101678.20
2022-09-05T12:16:10.380Z,101677.73
2022-09-05T12:20:06.043Z,101666.30
2022-09-05T12:25:15.182Z,101674.28
2022-09-05T12:29:28.119Z,101663.65
2022-09-05T12:33:58.432Z,101669.30
2022-09-05T12:40:03.080Z,101668.23
2022-09-05T12:41:42.624Z,101662.33
2022-09-05T12:45:10.320Z,101663.98
2022-09-05T12:49:07.046Z,101671.98
2022-09-05T12:52:59.878Z,101659.58
2022-09-05T13:00:24.264Z,101653.64
2022-09-05T13:03:04.852Z,101660.46
2022-09-05T13:05:17.981Z,101654.21
2022-09-05T13:09:08.343Z,101655.87
2022-09-05T13:14:55.596Z,101654.56
2022-09-05T13:17:02.368Z,101648.33
2022-09-05T13:20:51.633Z,101650.09
2022-09-05T13:24:41.526Z,101647.36
2022-09-05T13:28:30.362Z,101646.29
2022-09-05T13:38:10.787Z,101630.55
2022-09-05T13:38:28.924Z,101633.45
2022-09-05T13:40:44.739Z,101627.76
2022-09-05T13:44:36.037Z,101625.91
2022-09-05T13:49:23.923Z,101626.89
2022-09-05T13:52:43.686Z,101618.77
2022-09-05T13:56:31.238Z,101618.19
2022-09-05T14:01:17.767Z,101607.44
2022-09-05T14:05:21.231Z,101600.73
2022-09-05T14:13:26.738Z,101600.75
2022-09-05T14:21:39.292Z,101590.73
2022-09-05T14:25:28.996Z,101591.66
2022-09-05T14:29:20.400Z,101583.77
2022-09-05T14:37:39.709Z,101578.78
2022-09-05T14:37:55.237Z,101584.89
2022-09-05T14:41:35.199Z,101579.48
2022-09-05T14:45:19.995Z,101586.59
2022-09-05T14:49:15.576Z,101585.04
2022-09-05T15:01:46.233Z,101577.42
2022-09-05T15:02:42.232Z,101572.65
2022-09-05T15:04:48.309Z,101565.50
2022-09-05T15:10:51.088Z,101566.05
2022-09-05T15:12:33.045Z,101569.21
2022-09-05T15:16:13.109Z,101562.35
2022-09-05T15:20:05.228Z,101563.25
2022-09-05T15:23:36.352Z,101560.98
2022-09-05T15:27:02.297Z,101563.42
2022-09-05T15:30:36.049Z,101563.52
2022-09-05T15:34:26.400Z,101560.56
2022-09-05T15:37:53.258Z,101559.00
2022-09-05T15:41:23.070Z,101551.41
2022-09-05T15:45:09.111Z,101547.46
2022-09-05T15:48:39.994Z,101546.23
2022-09-05T15:52:29.451Z,101540.17
2022-09-05T15:56:01.031Z,101542.91
2022-09-05T15:59:35.389Z,101541.27
2022-09-05T16:04:28.694Z,101542.78
2022-09-05T16:10:35.221Z,101546.48
2022-09-05T16:11:06.106Z,101540.65
2022-09-05T16:14:39.579Z,101537.85
2022-09-05T16:23:20.371Z,101546.04
2022-09-05T16:23:24.621Z,101541.47
2022-09-05T16:25:56.200Z,101536.81
2022-09-05T16:29:27.039Z,101534.20
2022-09-05T16:32:59.455Z,101533.23
2022-09-05T16:36:29.753Z,101527.30
2022-09-05T16:40:04.688Z,101530.27
2022-09-05T16:43:34.850Z,101531.16
2022-09-05T16:47:13.945Z,101526.01
2022-09-05T16:50:48.022Z,101524.90
2022-09-05T16:54:25.608Z,101525.23
2022-09-05T16:58:08.915Z,101524.70
2022-09-05T17:02:07.066Z,101525.38
2022-09-05T17:05:46.063Z,101527.46
2022-09-05T17:09:24.433Z,101527.27
2022-09-05T17:12:55.917Z,101530.73
2022-09-05T17:16:31.253Z,101532.23
2022-09-05T17:20:05.932Z,101536.06
2022-09-05T17:29:21.066Z,101530.12
2022-09-05T17:29:31.265Z,101527.73
2022-09-05T17:35:18.623Z,101529.27
2022-09-05T17:38:58.593Z,101535.32
2022-09-05T17:42:39.125Z,101537.84
2022-09-05T17:46:18.417Z,101536.98
2022-09-05T17:49:47.513Z,101539.11
2022-09-05T17:53:25.291Z,101543.91
2022-09-05T17:56:54.852Z,101543.56
2022-09-05T18:01:01.152Z,101546.90
2022-09-05T18:04:48.422Z,101547.23
2022-09-05T18:08:52.622Z,101556.59
2022-09-05T18:13:14.222Z,101558.16
2022-09-05T18:16:42.204Z,101563.78
2022-09-05T18:20:25.882Z,101569.57
2022-09-05T18:24:05.169Z,101572.00
2022-09-05T18:28:05.464Z,101576.91
2022-09-05T18:32:03.106Z,101580.34
2022-09-05T18:35:37.560Z,101579.58
2022-09-05T18:39:48.459Z,101578.11
2022-09-05T18:43:32.112Z,101584.40
2022-09-05T18:47:02.457Z,101585.08
2022-09-05T18:50:33.227Z,101586.79
2022-09-05T18:54:03.618Z,101590.47
2022-09-05T18:57:38.281Z,101595.20
2022-09-05T19:01:28.330Z,101594.96
2022-09-05T19:04:59.589Z,101590.17
2022-09-05T19:08:34.847Z,101593.12
2022-09-05T19:12:33.123Z,101593.08
2022-09-05T19:16:33.214Z,101586.31
2022-09-05T19:20:31.898Z,101588.56
2022-09-05T19:24:05.196Z,101588.12
2022-09-05T19:30:53.713Z,101581.73
2022-09-05T19:37:03.610Z,101585.71
2022-09-05T19:37:05.307Z,101586.27
2022-09-05T19:40:11.220Z,101581.27
2022-09-05T19:47:29.203Z,101580.34
2022-09-05T19:47:48.039Z,101578.00
2022-09-05T19:50:24.927Z,101572.83
2022-09-05T19:54:03.952Z,101574.35
2022-09-05T19:57:32.876Z,101576.38
2022-09-05T20:01:13.479Z,101577.02
2022-09-05T20:04:46.850Z,101574.63
2022-09-05T20:08:29.341Z,101578.23
2022-09-05T20:11:58.233Z,101582.58
2022-09-05T20:15:35.893Z,101584.27
2022-09-05T20:19:06.725Z,101582.75
2022-09-05T20:22:48.234Z,101583.58
2022-09-05T20:26:21.406Z,101580.17
2022-09-05T20:29:55.694Z,101580.14
2022-09-05T20:33:28.041Z,101582.21
2022-09-05T20:42:21.905Z,101578.14
2022-09-05T20:43:21.001Z,101572.48
2022-09-05T20:44:42.401Z,101572.59
2022-09-05T20:53:03.602Z,101573.41
2022-09-05T20:54:15.842Z,101578.09
2022-09-05T20:55:49.524Z,101576.95
2022-09-05T20:59:26.085Z,101578.45
2022-09-05T21:03:01.048Z,101576.44
2022-09-05T21:06:33.775Z,101577.78
2022-09-05T21:10:02.762Z,101578.05
2022-09-05T21:13:32.206Z,101576.90
2022-09-05T21:17:14.714Z,101578.21
2022-09-05T21:20:52.140Z,101576.19
2022-09-05T21:24:25.364Z,101576.98
2022-09-05T21:28:04.152Z,101583.79
2022-09-05T21:31:30.912Z,101586.90
2022-09-05T21:34:58.087Z,101588.08
2022-09-05T21:38:32.835Z,101587.30
2022-09-05T21:42:18.586Z,101590.39
2022-09-05T21:47:43.541Z,101591.16
2022-09-05T21:49:36.816Z,101592.30
2022-09-05T21:53:14.562Z,101592.71
2022-09-05T21:59:26.346Z,101590.72
2022-09-05T22:00:44.243Z,101597.45
2022-09-05T22:04:11.203Z,101598.96
2022-09-05T22:07:39.088Z,101599.75
2022-09-05T22:11:06.404Z,101601.23
2022-09-05T22:14:33.459Z,101600.61
2022-09-05T22:18:27.427Z,101600.52
2022-09-05T22:21:49.100Z,101603.63
2022-09-05T22:25:27.737Z,101601.42
2022-09-05T22:28:54.476Z,101599.59
2022-09-05T22:32:34.641Z,101597.95
2022-09-05T22:36:02.382Z,101598.21
2022-09-05T22:39:36.762Z,101597.92
2022-09-05T22:43:08.188Z,101592.20
2022-09-05T22:46:35.692Z,101589.47
2022-09-05T22:50:02.738Z,101586.01
2022-09-05T22:53:29.491Z,101589.76
2022-09-05T22:56:56.419Z,101585.73
2022-09-05T23:00:23.268Z,101586.80
2022-09-05T23:03:49.848Z,101590.71
2022-09-05T23:07:16.865Z,101589.34
2022-09-05T23:10:44.030Z,101587.80
2022-09-05T23:14:10.820Z,101586.45
2022-09-05T23:17:38.924Z,101588.06
2022-09-05T23:21:07.622Z,101593.23
2022-09-05T23:24:34.678Z,101590.30
2022-09-05T23:28:05.561Z,101586.86
2022-09-05T23:31:32.174Z,101585.34
2022-09-05T23:34:59.240Z,101583.41
2022-09-05T23:38:26.094Z,101583.27
2022-09-05T23:41:53.271Z,101585.94
2022-09-05T23:45:20.069Z,101586.88
2022-09-05T23:48:46.787Z,101585.89
2022-09-05T23:52:13.819Z,101581.41
2022-09-05T23:55:41.875Z,101582.52
2022-09-05T23:59:08.530Z,101575.92
